Terminal Aerodrome Forecast
Issued by NWS Cleveland, OH

Home | Current Version | Previous Version | Graphics & Text | Print | Product List | Glossary Off
Versions: 1 2 3 4 5 6 7 8 9 10 11 12 13 14 15 16 17 18

000
FTUS41 KCLE 031140
TAFCAK
TAF
KCAK 031140Z 0312/0412 VRB04KT 5SM BR SCT120 BKN250
     FM031700 32005KT P6SM SCT050 BKN100
     FM040300 VRB04KT P6SM VCSH SCT060 BKN120
     FM041000 VRB03KT P6SM BKN100=

USA.gov is the U.S. government's official web portal to all federal, state and local government web resources and services.